Time;durP1;ratioP1;P1;durP2;ratioP2;P2;SDS_P1;SDS_P2;PMS_P1;PMS_P2;Temp;Humidity;BMP_temperature;BMP_pressure;BME280_temperature;BME280_humidity;BME280_pressure;Samples;Min_cycle;Max_cycle;Signal;HPM_P1;HPM_P2
2022/11/11 00:02:09;;;;;;;12.50;9.07;;;;;;;14.09;100.00;100882.81;10057936;28;96767;-79
2022/11/11 00:07:14;;;;;;;17.55;9.10;;;;;;;14.05;100.00;100868.91;10057925;28;96637;-79
2022/11/11 00:12:17;;;;;;;;;;;;;;;14.01;100.00;100864.69;10059427;28;96786;-79
2022/11/11 00:28:12;;;;;;;11.48;7.88;;;;;;;13.81;100.00;100862.75;10056272;29;97347;-79
2022/11/11 00:33:15;;;;;;;13.57;8.13;;;;;;;13.73;100.00;100867.47;10057046;28;96673;-79
2022/11/11 00:43:41;;;;;;;12.32;8.40;;;;;;;13.75;100.00;100857.75;10056915;29;97054;-79
2022/11/11 00:54:07;;;;;;;9.95;7.20;;;;;;;13.75;100.00;100858.59;10057136;29;96940;-79
2022/11/11 00:59:10;;;;;;;11.75;8.10;;;;;;;13.77;100.00;100850.66;10056050;28;96887;-79
2022/11/11 01:04:13;;;;;;;12.63;7.15;;;;;;;13.75;100.00;100852.47;10057330;28;96735;-79
2022/11/11 01:09:18;;;;;;;13.88;7.15;;;;;;;13.81;100.00;100847.00;10055634;29;97699;-79
2022/11/11 01:14:22;;;;;;;10.20;7.13;;;;;;;13.81;100.00;100839.09;10056139;28;97231;-79
2022/11/11 01:19:25;;;;;;;11.68;7.45;;;;;;;13.77;100.00;100840.13;10054611;28;96896;-79
2022/11/11 01:24:30;;;;;;;13.60;7.88;;;;;;;13.72;100.00;100828.94;10055998;28;96860;-79
2022/11/11 01:29:33;;;;;;;;;;;;;;;13.67;100.00;100820.34;10055700;28;96608;-79
2022/11/11 01:34:36;;;;;;;10.15;6.95;;;;;;;13.71;100.00;100825.47;10055684;28;96838;-79
2022/11/11 01:39:41;;;;;;;12.52;7.57;;;;;;;13.72;100.00;100826.31;10055872;28;96793;-79
2022/11/11 01:44:47;;;;;;;10.27;6.82;;;;;;;13.67;100.00;100818.56;10055075;28;96835;-79
2022/11/11 01:49:54;;;;;;;14.75;7.22;;;;;;;13.69;100.00;100815.91;10054269;28;96845;-79
2022/11/11 01:55:03;;;;;;;9.35;6.78;;;;;;;13.67;100.00;100817.72;10055424;28;97299;-79
2022/11/11 02:00:10;;;;;;;13.32;6.95;;;;;;;13.69;100.00;100819.41;10054352;28;96980;-79
2022/11/11 02:10:40;;;;;;;9.45;6.68;;;;;;;13.62;100.00;100804.78;10053321;29;96888;-79
2022/11/11 02:15:44;;;;;;;9.77;7.00;;;;;;;13.59;100.00;100805.72;10054281;28;96747;-79
2022/11/11 02:20:47;;;;;;;10.37;6.63;;;;;;;13.55;100.00;100801.50;10054108;28;97044;-79
2022/11/11 02:25:54;;;;;;;10.48;6.88;;;;;;;13.56;100.00;100811.09;10054372;28;96802;-79
2022/11/11 02:30:57;;;;;;;10.13;6.65;;;;;;;13.50;100.00;100807.81;10053427;28;96738;-79
2022/11/11 02:36:01;;;;;;;12.30;6.88;;;;;;;13.49;100.00;100800.84;10053430;28;98123;-79
2022/11/11 02:46:27;;;;;;;10.43;6.80;;;;;;;13.40;100.00;100788.91;10053869;29;96892;-79
2022/11/11 02:51:31;;;;;;;12.50;7.03;;;;;;;13.39;100.00;100781.91;10053234;29;96795;-79
2022/11/11 03:01:56;;;;;;;10.52;5.90;;;;;;;13.35;100.00;100759.31;10050626;29;97189;-79
2022/11/11 03:06:59;;;;;;;9.32;5.80;;;;;;;13.37;100.00;100752.22;10052819;28;96817;-79
2022/11/11 03:12:05;;;;;;;10.70;5.97;;;;;;;13.35;100.00;100736.53;10053469;28;96981;-79
2022/11/11 03:22:29;;;;;;;10.05;6.05;;;;;;;13.34;100.00;100734.81;10052303;29;96864;-79
2022/11/11 03:27:54;;;;;;;8.30;5.78;;;;;;;13.32;100.00;100730.53;10052070;28;96887;-79
2022/11/11 03:32:57;;;;;;;9.80;5.40;;;;;;;13.30;100.00;100724.47;10052086;28;96707;-79
2022/11/11 03:38:22;;;;;;;8.50;5.63;;;;;;;13.28;100.00;100736.81;10052630;28;96701;-79
2022/11/11 03:43:29;;;;;;;7.50;5.13;;;;;;;13.28;100.00;100727.16;10052119;28;97278;-79
2022/11/11 03:48:34;;;;;;;8.23;5.25;;;;;;;13.26;100.00;100730.75;10051516;29;96789;-79
2022/11/11 03:53:37;;;;;;;;;;;;;;;13.20;100.00;100730.06;10050955;28;96761;-79
2022/11/11 03:58:42;;;;;;;8.68;5.55;;;;;;;13.20;100.00;100709.06;10051546;29;96889;-79
2022/11/11 04:30:32;;;;;;;7.03;4.00;;;;;;;13.18;100.00;100712.63;10058054;29;96664;-79
2022/11/11 04:35:36;;;;;;;6.10;4.53;;;;;;;13.18;100.00;100713.47;10057273;28;96625;-80
2022/11/11 04:46:01;;;;;;;8.88;4.30;;;;;;;13.13;100.00;100718.03;10055841;29;96813;-79
2022/11/11 04:51:05;;;;;;;8.70;4.43;;;;;;;13.12;100.00;100721.59;10056898;28;96845;-79
2022/11/11 05:12:08;;;;;;;5.15;3.65;;;;;;;13.04;100.00;100716.59;10056282;29;97912;-79
2022/11/11 05:22:45;;;;;;;5.53;3.63;;;;;;;12.98;100.00;100706.31;9983013;28;98859;-79
2022/11/11 05:27:48;;;;;;;4.95;4.05;;;;;;;12.97;100.00;100716.88;10055816;28;97630;-79
2022/11/11 05:32:55;;;;;;;6.53;4.30;;;;;;;12.93;100.00;100713.50;10055011;28;96869;-79
2022/11/11 05:38:20;;;;;;;9.10;4.75;;;;;;;12.96;100.00;100718.63;10054275;29;96833;-79
2022/11/11 05:43:23;;;;;;;7.35;4.05;;;;;;;12.95;100.00;100713.44;10055350;28;96721;-79
2022/11/11 05:48:28;;;;;;;9.30;4.05;;;;;;;12.92;100.00;100709.13;10055421;28;97113;-79
2022/11/11 05:53:32;;;;;;;8.25;4.32;;;;;;;12.91;100.00;100709.19;10055178;28;96730;-79
2022/11/11 05:58:36;;;;;;;6.00;4.03;;;;;;;12.86;100.00;100709.34;10054708;28;97058;-79
2022/11/11 06:03:40;;;;;;;5.82;4.05;;;;;;;12.86;100.00;100710.19;10054894;28;96775;-80
2022/11/11 06:08:44;;;;;;;6.75;4.00;;;;;;;12.86;100.00;100698.84;10055033;28;96929;-79
2022/11/11 06:13:48;;;;;;;7.82;3.95;;;;;;;12.82;100.00;100695.47;10055075;28;96697;-79
2022/11/11 06:18:52;;;;;;;7.38;3.60;;;;;;;12.80;100.00;100694.63;10054154;29;96832;-79
2022/11/11 06:23:56;;;;;;;6.07;3.65;;;;;;;12.79;100.00;100699.97;10054064;28;96663;-79
2022/11/11 06:28:59;;;;;;;5.70;3.67;;;;;;;12.78;100.00;100713.97;10052678;28;97825;-79
2022/11/11 06:34:03;;;;;;;6.15;3.78;;;;;;;12.74;100.00;100721.09;10053556;28;96813;-79
2022/11/11 06:39:07;;;;;;;7.63;4.00;;;;;;;12.75;100.00;100712.31;10053732;28;96686;-79
2022/11/11 06:44:10;;;;;;;6.88;3.47;;;;;;;12.72;100.00;100712.44;10053779;28;96740;-79
2022/11/11 06:49:14;;;;;;;6.22;3.88;;;;;;;12.71;100.00;100704.59;10053159;28;96784;-79
2022/11/11 06:54:18;;;;;;;4.97;3.50;;;;;;;12.69;100.00;100713.38;10053454;28;96653;-79
2022/11/11 06:59:21;;;;;;;6.97;4.00;;;;;;;12.69;100.00;100694.16;10052819;28;96730;-79
2022/11/11 07:04:26;;;;;;;7.18;3.63;;;;;;;12.67;100.00;100701.22;10054001;28;97065;-79
2022/11/11 07:09:29;;;;;;;5.88;3.58;;;;;;;12.68;100.00;100700.28;10053075;28;96665;-79
2022/11/11 07:14:33;;;;;;;5.60;4.03;;;;;;;12.66;100.00;100717.88;10052955;28;96857;-79
2022/11/11 07:19:37;;;;;;;5.93;3.70;;;;;;;12.63;100.00;100723.19;10051431;28;96666;-79
2022/11/11 07:24:41;;;;;;;7.07;3.67;;;;;;;12.61;100.00;100728.53;10052737;28;96726;-79
2022/11/11 07:29:44;;;;;;;6.40;3.53;;;;;;;12.60;100.00;100728.56;10052040;28;98537;-79
2022/11/11 07:34:49;;;;;;;5.63;3.60;;;;;;;12.59;100.00;100753.94;10052965;28;96973;-79
2022/11/11 07:39:53;;;;;;;5.90;3.60;;;;;;;12.59;100.00;100758.31;10052124;28;96783;-79
2022/11/11 07:44:56;;;;;;;5.05;3.28;;;;;;;12.55;100.00;100757.56;10052405;28;96798;-79
2022/11/11 07:50:01;;;;;;;6.15;3.15;;;;;;;12.58;100.00;100762.72;10059151;28;96826;-79
2022/11/11 07:55:10;;;;;;;5.25;2.95;;;;;;;12.64;100.00;100774.78;10059340;28;97244;-79
2022/11/11 08:00:14;;;;;;;5.13;3.35;;;;;;;12.66;100.00;100773.81;10058421;28;97170;-79
2022/11/11 08:05:19;;;;;;;6.13;3.20;;;;;;;12.70;100.00;100777.22;10058268;28;96657;-79
2022/11/11 08:10:22;;;;;;;4.20;3.10;;;;;;;12.69;100.00;100780.75;10056983;28;97024;-79
2022/11/11 08:15:25;;;;;;;5.95;3.35;;;;;;;12.79;100.00;100773.44;10058121;29;96585;-79
2022/11/11 08:20:30;;;;;;;7.85;3.70;;;;;;;13.03;100.00;100795.41;10057935;28;96653;-79
2022/11/11 08:25:33;;;;;;;7.50;3.70;;;;;;;13.22;100.00;100801.75;10057550;28;96756;-80
2022/11/11 08:30:36;;;;;;;6.93;3.20;;;;;;;13.37;100.00;100804.75;10056872;28;96684;-79
2022/11/11 08:35:41;;;;;;;5.73;3.13;;;;;;;13.51;100.00;100799.03;10057786;29;96767;-80
2022/11/11 08:40:45;;;;;;;4.22;2.83;;;;;;;13.62;100.00;100804.78;10057578;28;97722;-79
2022/11/11 08:45:48;;;;;;;6.30;3.38;;;;;;;13.74;100.00;100820.09;10057471;28;96905;-79
2022/11/11 08:50:53;;;;;;;4.55;3.50;;;;;;;13.87;100.00;100819.66;10056827;28;96746;-79
2022/11/11 08:55:56;;;;;;;4.80;3.50;;;;;;;13.94;100.00;100819.34;10056646;28;96652;-79
2022/11/11 09:01:00;;;;;;;4.97;3.08;;;;;;;13.92;100.00;100818.56;10056126;28;96983;-80
2022/11/11 09:06:05;;;;;;;5.80;3.13;;;;;;;13.98;100.00;100810.47;10056826;28;97297;-80
2022/11/11 09:11:08;;;;;;;4.32;3.10;;;;;;;13.96;100.00;100814.88;10055849;28;96694;-79
2022/11/11 09:16:11;;;;;;;4.10;3.10;;;;;;;13.96;100.00;100814.03;10056094;28;97107;-79
2022/11/11 09:21:16;;;;;;;4.45;3.05;;;;;;;13.93;100.00;100817.66;10055944;28;96846;-79
2022/11/11 09:26:19;;;;;;;3.63;2.58;;;;;;;13.91;100.00;100803.69;10056061;28;96905;-79
2022/11/11 09:31:23;;;;;;;5.75;2.95;;;;;;;13.96;100.00;100819.28;10055639;28;96902;-79
2022/11/11 09:36:49;;;;;;;3.08;2.45;;;;;;;13.86;100.00;100797.75;10056398;28;96858;-79
2022/11/11 09:41:59;;;;;;;3.65;2.47;;;;;;;13.77;100.00;100819.13;10054650;28;96797;-79
2022/11/11 09:47:18;;;;;;;3.53;2.30;;;;;;;13.78;100.00;100799.81;10055017;28;96691;-79
2022/11/11 09:52:27;;;;;;;3.95;2.42;;;;;;;13.88;100.00;100797.69;10054153;28;96804;-79
2022/11/11 09:57:36;;;;;;;3.88;2.10;;;;;;;13.94;100.00;100795.69;10054944;28;96720;-79
2022/11/11 10:02:47;;;;;;;2.40;1.80;;;;;;;14.03;100.00;100793.63;10054975;28;96993;-79
2022/11/11 10:07:57;;;;;;;3.20;1.90;;;;;;;14.02;100.00;100786.66;10054094;28;96757;-80
2022/11/11 10:13:00;;;;;;;2.95;2.10;;;;;;;13.99;100.00;100771.88;10054742;28;96962;-79
2022/11/11 10:18:27;;;;;;;4.25;2.75;;;;;;;14.05;100.00;100773.41;10054021;28;98533;-79
2022/11/11 10:23:35;;;;;;;2.78;2.00;;;;;;;14.12;100.00;100780.13;10054058;28;96894;-79
2022/11/11 10:28:44;;;;;;;4.25;2.30;;;;;;;14.17;100.00;100776.41;10054682;28;96795;-79
2022/11/11 10:33:51;;;;;;;2.55;2.00;;;;;;;14.19;100.00;100763.19;10053467;28;96851;-79
2022/11/11 10:38:59;;;;;;;4.72;2.13;;;;;;;14.20;100.00;100767.53;10053517;28;96730;-79
2022/11/11 10:44:18;;;;;;;3.08;2.10;;;;;;;14.20;100.00;100759.66;10052510;28;96741;-79
2022/11/11 10:49:24;;;;;;;3.13;2.20;;;;;;;14.23;100.00;100762.19;10053911;28;97167;-79
2022/11/11 10:54:36;;;;;;;3.38;2.03;;;;;;;14.22;100.00;100742.03;10053157;28;96737;-79
2022/11/11 10:59:51;;;;;;;3.35;2.10;;;;;;;14.23;100.00;100727.97;10053103;28;96859;-79
2022/11/11 11:05:01;;;;;;;4.28;1.80;;;;;;;14.21;100.00;100735.09;10052925;28;96705;-79
2022/11/11 11:10:13;;;;;;;5.20;2.88;;;;;;;14.27;100.00;100716.41;10053116;28;97356;-79
2022/11/11 11:15:20;;;;;;;3.47;2.42;;;;;;;14.24;100.00;100708.63;10052552;28;96827;-79
2022/11/11 11:20:23;;;;;;;3.63;1.98;;;;;;;14.27;100.00;100703.25;10054123;28;96893;-79
2022/11/11 11:25:32;;;;;;;4.50;2.80;;;;;;;14.29;100.00;100701.41;10059930;28;97034;-79
2022/11/11 11:30:35;;;;;;;3.88;2.38;;;;;;;14.38;100.00;100705.47;10059249;28;96800;-79
2022/11/11 11:35:40;;;;;;;3.72;2.42;;;;;;;14.39;100.00;100707.19;10058112;28;96791;-79
2022/11/11 11:40:51;;;;;;;3.75;2.50;;;;;;;14.46;100.00;100702.56;10058646;28;96714;-80
2022/11/11 11:45:58;;;;;;;2.33;1.75;;;;;;;14.56;100.00;100693.38;10059069;28;96777;-79
2022/11/11 11:51:16;;;;;;;4.05;2.22;;;;;;;14.62;100.00;100682.56;10058630;28;96621;-79
2022/11/11 11:56:29;;;;;;;3.75;2.33;;;;;;;14.72;100.00;100683.03;10058520;28;96895;-79
2022/11/11 12:01:41;;;;;;;5.07;2.90;;;;;;;14.74;100.00;100671.50;10058221;28;96778;-80
2022/11/11 12:06:58;;;;;;;4.53;2.70;;;;;;;14.82;100.00;100667.69;10058498;28;96761;-79
2022/11/11 12:12:11;;;;;;;3.42;2.53;;;;;;;15.03;100.00;100661.50;10058654;28;97228;-79
2022/11/11 12:17:28;;;;;;;4.13;2.50;;;;;;;15.27;100.00;100664.00;10057999;28;96899;-80
2022/11/11 12:22:45;;;;;;;4.00;2.45;;;;;;;15.60;100.00;100655.47;10057829;28;96789;-80
2022/11/11 12:28:00;;;;;;;6.72;2.60;;;;;;;16.00;100.00;100656.25;10056575;28;96660;-80
2022/11/11 12:33:14;;;;;;;;;;;;;;;16.25;100.00;100643.53;10057601;28;97525;-80
2022/11/11 12:38:30;;;;;;;4.05;2.97;;;;;;;16.98;100.00;100653.97;10057335;29;96764;-80
2022/11/11 12:43:45;;;;;;;4.45;2.63;;;;;;;17.85;100.00;100628.19;10057034;28;96714;-80
2022/11/11 12:48:56;;;;;;;;;;;;;;;18.26;100.00;100622.34;10057910;28;97105;-80
2022/11/11 12:54:08;;;;;;;3.60;2.28;;;;;;;18.80;100.00;100622.63;10057417;28;97065;-80
2022/11/11 12:59:23;;;;;;;3.47;2.17;;;;;;;19.23;100.00;100613.88;10056211;28;96572;-80
2022/11/11 13:04:55;;;;;;;4.07;2.70;;;;;;;19.43;100.00;100610.81;10057335;28;96779;-80
2022/11/11 13:10:13;;;;;;;3.13;2.33;;;;;;;18.80;100.00;100601.44;10056161;28;97054;-80
2022/11/11 13:15:22;;;;;;;4.55;2.22;;;;;;;18.33;100.00;100576.03;10056368;28;96773;-80
2022/11/11 13:20:42;;;;;;;3.83;2.50;;;;;;;18.70;100.00;100579.09;10054953;28;96816;-80
2022/11/11 13:25:48;;;;;;;4.05;2.20;;;;;;;18.80;100.00;100577.59;10055978;28;96718;-80
2022/11/11 13:31:12;;;;;;;5.03;2.38;;;;;;;18.78;100.00;100550.34;10055464;28;96808;-80
2022/11/11 13:36:19;;;;;;;4.72;2.20;;;;;;;18.48;100.00;100553.94;10055616;28;97098;-80
2022/11/11 13:41:26;;;;;;;3.65;2.33;;;;;;;18.60;100.00;100554.13;10055121;28;96750;-80
2022/11/11 13:46:35;;;;;;;4.15;2.30;;;;;;;18.50;100.00;100541.44;10054535;28;96976;-80
2022/11/11 13:51:41;;;;;;;3.13;2.10;;;;;;;18.54;100.00;100536.81;10054903;28;96858;-80
2022/11/11 13:56:46;;;;;;;3.60;2.40;;;;;;;18.39;100.00;100527.97;10055812;28;96833;-80
2022/11/11 14:02:28;;;;;;;3.38;2.40;;;;;;;18.30;100.00;100512.66;10054896;28;96947;-80
2022/11/11 14:07:49;;;;;;;6.35;4.03;;;;;;;18.50;100.00;100514.97;10054763;29;97181;-80
2022/11/11 14:12:54;;;;;;;8.73;6.10;;;;;;;18.61;100.00;100508.16;10053269;28;96779;-80
2022/11/11 14:17:58;;;;;;;6.32;4.40;;;;;;;18.76;100.00;100506.34;10054067;28;96815;-80
2022/11/11 14:23:22;;;;;;;6.35;4.40;;;;;;;18.79;100.00;100504.34;10054087;28;97264;-80
2022/11/11 14:28:30;;;;;;;5.93;4.68;;;;;;;18.90;100.00;100505.50;10053929;28;97505;-80
2022/11/11 14:33:47;;;;;;;6.88;4.20;;;;;;;19.14;100.00;100503.13;10053995;28;96760;-80
2022/11/11 14:39:04;;;;;;;5.68;4.07;;;;;;;19.07;100.00;100500.00;10053367;28;96688;-80
2022/11/11 14:44:39;;;;;;;4.22;3.25;;;;;;;19.19;100.00;100496.59;10053356;28;96724;-80
2022/11/11 14:49:46;;;;;;;;;;;;;;;18.82;100.00;100498.88;10054364;29;96722;-80
2022/11/11 14:55:06;;;;;;;4.53;3.45;;;;;;;19.34;100.00;100500.03;10053381;29;96628;-80
2022/11/11 15:00:17;;;;;;;4.97;3.47;;;;;;;19.52;100.00;100502.44;10052650;28;96723;-80
2022/11/11 15:05:31;;;;;;;4.53;3.40;;;;;;;19.38;100.00;100511.28;10052773;28;96861;-80
2022/11/11 15:11:01;;;;;;;6.77;3.67;;;;;;;19.50;100.00;100509.66;10052400;28;97164;-80
2022/11/11 15:16:13;;;;;;;5.55;3.45;;;;;;;19.71;100.00;100513.53;10052830;28;96958;-80
2022/11/11 15:21:26;;;;;;;4.65;3.53;;;;;;;19.76;100.00;100537.13;10052454;28;96850;-80
2022/11/11 15:26:38;;;;;;;5.10;3.25;;;;;;;19.53;100.00;100515.59;10052463;28;96659;-80
2022/11/11 15:31:50;;;;;;;5.38;3.15;;;;;;;19.45;100.00;100515.25;10052008;28;96900;-80
2022/11/11 15:36:58;;;;;;;4.60;3.58;;;;;;;19.08;100.00;100514.97;10052052;28;97061;-80
2022/11/11 15:42:03;;;;;;;4.40;3.50;;;;;;;18.79;100.00;100514.94;10052704;28;96716;-80
2022/11/11 15:47:07;;;;;;;4.47;3.40;;;;;;;18.33;100.00;100501.06;10052558;28;96861;-80
2022/11/11 15:52:28;;;;;;;5.45;3.38;;;;;;;17.78;100.00;100484.81;10052460;28;96907;-80
2022/11/11 15:57:32;;;;;;;4.18;2.83;;;;;;;17.33;100.00;100490.00;10050810;28;96828;-80
2022/11/11 16:02:36;;;;;;;4.80;3.28;;;;;;;17.17;100.00;100479.44;10051593;28;96742;-80
2022/11/11 16:07:43;;;;;;;4.38;2.90;;;;;;;17.04;100.00;100489.00;10054373;28;96658;-80
2022/11/11 16:12:51;;;;;;;6.45;3.85;;;;;;;16.88;100.00;100486.34;10058210;28;97151;-80
2022/11/11 16:17:59;;;;;;;4.20;3.28;;;;;;;16.66;100.00;100493.69;10057969;28;96735;-80
2022/11/11 16:23:07;;;;;;;4.07;3.20;;;;;;;16.50;100.00;100493.66;10057648;28;96719;-80
2022/11/11 16:28:12;;;;;;;4.25;3.15;;;;;;;16.34;100.00;100483.88;10057458;28;96748;-80
2022/11/11 16:33:33;;;;;;;4.22;3.33;;;;;;;16.17;100.00;100483.91;10058257;28;96805;-80
2022/11/11 16:38:38;;;;;;;4.13;2.83;;;;;;;16.04;100.00;100486.34;10056975;28;96712;-79
2022/11/11 16:43:43;;;;;;;3.53;2.90;;;;;;;15.76;100.00;100490.38;10057803;28;96771;-80
2022/11/11 16:48:49;;;;;;;4.93;3.60;;;;;;;15.38;100.00;100482.53;10056205;28;96741;-80
2022/11/11 16:54:06;;;;;;;4.75;3.10;;;;;;;15.18;100.00;100485.25;10057077;28;96630;-79
2022/11/11 16:59:14;;;;;;;4.78;2.88;;;;;;;15.06;100.00;100492.81;10056317;28;96867;-79
2022/11/11 17:04:18;;;;;;;4.85;3.03;;;;;;;15.00;100.00;100489.63;10056598;28;96725;-79
2022/11/11 17:09:39;;;;;;;4.20;3.05;;;;;;;14.93;100.00;100502.22;10056248;28;96842;-80
2022/11/11 17:14:42;;;;;;;6.45;3.58;;;;;;;14.87;100.00;100492.81;10056536;28;96585;-79
2022/11/11 17:19:45;;;;;;;4.88;3.78;;;;;;;14.81;100.00;100505.41;10054425;28;96874;-80
2022/11/11 17:24:50;;;;;;;9.20;4.00;;;;;;;14.78;100.00;100514.28;10056924;28;96686;-79
2022/11/11 17:29:53;;;;;;;;;;;;;;;14.71;100.00;100524.25;10055922;28;96672;-80
2022/11/11 17:34:56;;;;;;;5.00;3.65;;;;;;;14.66;100.00;100526.25;10055682;28;96815;-80
2022/11/11 17:40:01;;;;;;;9.20;4.05;;;;;;;14.63;100.00;100526.38;10054175;28;97041;-79
2022/11/11 17:45:05;;;;;;;6.53;4.25;;;;;;;14.57;100.00;100531.91;10055186;28;96838;-79
2022/11/11 17:50:09;;;;;;;5.53;3.95;;;;;;;14.53;100.00;100525.91;10055316;28;96942;-79
2022/11/11 17:55:13;;;;;;;6.50;4.53;;;;;;;14.50;100.00;100525.19;10054808;28;96829;-79
2022/11/11 18:00:17;;;;;;;7.30;4.55;;;;;;;14.46;100.00;100523.63;10054665;28;96759;-79
2022/11/11 18:05:21;;;;;;;6.27;4.43;;;;;;;14.46;100.00;100528.91;10054926;28;96597;-79
2022/11/11 18:10:25;;;;;;;6.32;4.55;;;;;;;14.44;100.00;100536.00;10054351;28;96981;-79
2022/11/11 18:15:28;;;;;;;8.45;5.65;;;;;;;14.44;100.00;100543.91;10055258;28;96712;-80
2022/11/11 18:20:31;;;;;;;8.80;5.60;;;;;;;14.40;100.00;100547.56;10053951;28;96720;-80
2022/11/11 18:25:36;;;;;;;7.50;5.28;;;;;;;14.39;100.00;100548.50;10053920;28;97077;-79
2022/11/11 18:30:39;;;;;;;6.07;4.28;;;;;;;14.35;100.00;100548.63;10052197;28;97183;-79
2022/11/11 18:35:42;;;;;;;5.47;4.05;;;;;;;14.40;100.00;100555.47;10054084;28;96622;-79
2022/11/11 18:40:47;;;;;;;7.85;4.88;;;;;;;14.39;100.00;100556.41;10053641;28;97238;-79
2022/11/11 18:45:50;;;;;;;5.53;4.18;;;;;;;14.40;100.00;100551.03;10053757;28;97026;-79
2022/11/11 18:50:54;;;;;;;6.50;4.55;;;;;;;14.29;100.00;100546.22;10053343;28;96610;-80
2022/11/11 18:56:06;;;;;;;7.18;4.90;;;;;;;14.19;100.00;100543.13;10053249;28;96794;-79
2022/11/11 19:01:12;;;;;;;8.90;4.93;;;;;;;14.13;100.00;100542.53;10052758;28;97114;-80
2022/11/11 19:06:15;;;;;;;7.05;4.47;;;;;;;14.03;100.00;100538.59;10053415;28;97705;-79
2022/11/11 19:11:20;;;;;;;9.00;5.82;;;;;;;13.97;100.00;100540.53;10052487;28;96909;-79
2022/11/11 19:16:24;;;;;;;9.57;5.72;;;;;;;13.93;100.00;100549.50;10052684;28;96636;-79
2022/11/11 19:21:29;;;;;;;10.85;5.90;;;;;;;13.87;100.00;100548.88;10051400;28;96819;-79
2022/11/11 19:26:34;;;;;;;9.38;6.30;;;;;;;13.82;100.00;100544.66;10052507;28;96834;-79
2022/11/11 19:31:37;;;;;;;;;;;;;;;13.82;100.00;100557.78;10052632;28;97109;-79
2022/11/11 19:36:40;;;;;;;7.55;5.57;;;;;;;13.80;100.00;100556.16;10052654;28;96865;-79
2022/11/11 19:41:45;;;;;;;6.97;5.05;;;;;;;13.82;100.00;100555.16;10053136;28;96897;-79
2022/11/11 19:46:48;;;;;;;6.47;4.55;;;;;;;13.88;100.00;100559.34;10059180;28;96708;-79
2022/11/11 19:51:51;;;;;;;7.32;4.93;;;;;;;13.84;100.00;100547.22;10058894;28;97018;-79
2022/11/11 19:56:56;;;;;;;6.20;4.63;;;;;;;13.82;100.00;100546.44;10059241;28;96624;-79
2022/11/11 20:01:59;;;;;;;5.88;4.60;;;;;;;13.79;100.00;100543.91;10058626;28;96864;-79
2022/11/11 20:07:02;;;;;;;7.93;5.25;;;;;;;13.66;100.00;100540.09;10058555;28;96758;-79
2022/11/11 20:12:07;;;;;;;8.52;6.18;;;;;;;13.60;100.00;100533.28;10057302;28;96971;-79
2022/11/11 20:17:10;;;;;;;9.10;6.07;;;;;;;13.51;100.00;100549.44;10058190;28;96872;-79
2022/11/11 20:22:13;;;;;;;7.85;5.40;;;;;;;13.47;100.00;100547.84;10058091;28;97459;-79
2022/11/11 20:27:18;;;;;;;8.05;5.22;;;;;;;13.42;100.00;100550.66;10057918;28;96702;-79
2022/11/11 20:32:21;;;;;;;7.07;4.50;;;;;;;13.47;100.00;100548.69;10057325;28;96687;-79
2022/11/11 20:37:25;;;;;;;7.13;4.63;;;;;;;13.51;100.00;100552.91;10057689;28;96683;-79
2022/11/11 20:42:30;;;;;;;7.50;5.18;;;;;;;13.55;100.00;100557.16;10056810;28;96896;-79
2022/11/11 20:47:33;;;;;;;5.55;4.40;;;;;;;13.54;100.00;100565.94;10057779;28;96620;-79
2022/11/11 20:52:37;;;;;;;6.05;4.68;;;;;;;13.55;100.00;100562.41;10056733;28;96836;-79
2022/11/11 20:57:42;;;;;;;5.25;4.43;;;;;;;13.52;100.00;100566.91;10056585;28;96728;-79
2022/11/11 21:02:45;;;;;;;8.23;5.28;;;;;;;13.48;100.00;100571.44;10055504;28;96672;-79
2022/11/11 21:07:48;;;;;;;8.20;5.50;;;;;;;13.40;100.00;100579.59;10057007;28;96790;-79
2022/11/11 21:12:54;;;;;;;8.07;5.38;;;;;;;13.45;100.00;100576.81;10055963;28;96669;-79
2022/11/11 21:17:58;;;;;;;10.15;6.60;;;;;;;13.44;100.00;100575.09;10056133;28;96743;-79
2022/11/11 21:23:01;;;;;;;7.97;6.30;;;;;;;13.44;100.00;100567.19;10056350;28;97090;-79
2022/11/11 21:28:05;;;;;;;11.02;6.40;;;;;;;13.44;100.00;100572.47;10055941;28;96899;-79
2022/11/11 21:33:09;;;;;;;10.00;6.30;;;;;;;13.38;100.00;100575.34;10056064;28;97077;-80
2022/11/11 21:38:12;;;;;;;8.63;5.90;;;;;;;13.31;100.00;100579.09;10056366;28;96826;-79
2022/11/11 21:43:16;;;;;;;10.63;7.03;;;;;;;13.26;100.00;100576.66;10055052;28;96775;-79
2022/11/11 21:48:19;;;;;;;12.40;7.13;;;;;;;13.19;100.00;100568.16;10055318;28;97182;-79
2022/11/11 21:53:29;;;;;;;9.20;6.65;;;;;;;13.14;100.00;100567.47;10054273;28;96754;-79
2022/11/11 21:58:34;;;;;;;8.90;6.50;;;;;;;13.12;100.00;100558.78;10054969;28;96749;-79
2022/11/11 22:03:39;;;;;;;9.95;7.13;;;;;;;13.14;100.00;100556.13;10054021;28;96848;-79
2022/11/11 22:08:42;;;;;;;9.18;6.70;;;;;;;13.14;100.00;100550.88;10054647;28;97255;-78
2022/11/11 22:13:47;;;;;;;9.52;6.88;;;;;;;13.03;100.00;100533.75;10054361;28;96690;-79
2022/11/11 22:18:52;;;;;;;;;;;;;;;12.91;100.00;100533.31;10054834;28;96747;-80
2022/11/11 22:23:57;;;;;;;8.73;6.30;;;;;;;12.86;100.00;100534.34;10054344;29;96904;-79
2022/11/11 22:29:03;;;;;;;10.20;6.80;;;;;;;12.83;100.00;100537.06;10054397;28;96792;-79
2022/11/11 22:34:08;;;;;;;11.25;7.15;;;;;;;12.84;100.00;100546.66;10054131;28;96657;-79
2022/11/11 22:39:11;;;;;;;10.93;6.45;;;;;;;12.86;100.00;100536.97;10053508;28;96897;-79
2022/11/11 22:44:15;;;;;;;8.25;6.30;;;;;;;12.81;100.00;100533.66;10052558;28;96711;-79
2022/11/11 22:49:19;;;;;;;8.25;6.53;;;;;;;12.85;100.00;100535.22;10053438;28;96798;-79
2022/11/11 22:54:22;;;;;;;8.95;5.97;;;;;;;12.86;100.00;100536.97;10053668;28;96715;-79
2022/11/11 22:59:27;;;;;;;8.38;5.50;;;;;;;12.85;100.00;100534.38;10052976;28;96711;-79
2022/11/11 23:04:29;;;;;;;;;;;;;;;12.74;100.00;100521.66;10053466;28;96720;-79
2022/11/11 23:09:38;;;;;;;7.63;5.90;;;;;;;12.71;100.00;100520.94;10053025;29;96847;-79
2022/11/11 23:14:43;;;;;;;7.82;6.43;;;;;;;12.69;100.00;100516.56;10052905;28;96720;-79
2022/11/11 23:19:46;;;;;;;8.88;6.35;;;;;;;12.67;100.00;100530.69;10053308;28;96654;-79
2022/11/11 23:24:49;;;;;;;8.95;6.10;;;;;;;12.63;100.00;100524.69;10052899;28;96840;-79
2022/11/11 23:29:54;;;;;;;8.45;5.75;;;;;;;12.62;100.00;100533.47;10052280;28;96943;-79
2022/11/11 23:34:57;;;;;;;8.80;5.97;;;;;;;12.59;100.00;100540.59;10051575;28;96655;-79
2022/11/11 23:40:00;;;;;;;8.20;5.57;;;;;;;12.63;100.00;100531.69;10052094;28;97234;-79
2022/11/11 23:45:05;;;;;;;7.35;5.32;;;;;;;12.66;100.00;100539.44;10052262;28;96800;-79
2022/11/11 23:50:09;;;;;;;8.18;5.30;;;;;;;12.67;100.00;100528.06;10052101;28;96768;-79
2022/11/11 23:55:12;;;;;;;6.93;5.72;;;;;;;12.64;100.00;100530.78;10052176;28;96825;-79
